Time;durP1;ratioP1;P1;durP2;ratioP2;P2;SDS_P1;SDS_P2;PMS_P1;PMS_P2;Temp;Humidity;BMP_temperature;BMP_pressure;BME280_temperature;BME280_humidity;BME280_pressure;Samples;Min_cycle;Max_cycle;Signal;HPM_P1;HPM_P2
2021/04/16 00:00:02;;;;;;;3.57;1.10;;;5.30;99.90;;;;;;5023433;28;20239;-48
2021/04/16 00:02:31;;;;;;;0.97;0.93;;;5.30;99.90;;;;;;5019820;28;20265;-47
2021/04/16 00:04:57;;;;;;;3.00;0.90;;;5.30;99.90;;;;;;5023789;28;20254;-49
2021/04/16 00:07:23;;;;;;;1.60;1.00;;;5.30;99.90;;;;;;5009210;28;20204;-55
2021/04/16 00:09:49;;;;;;;1.40;1.27;;;5.30;99.90;;;;;;5022151;28;20235;-51
2021/04/16 00:12:16;;;;;;;1.50;1.30;;;5.20;99.90;;;;;;5017427;28;20253;-53
2021/04/16 00:14:42;;;;;;;1.40;0.80;;;5.20;99.90;;;;;;5021285;28;20199;-51
2021/04/16 00:17:09;;;;;;;2.53;1.20;;;5.20;99.90;;;;;;5023678;28;20263;-48
2021/04/16 00:19:36;;;;;;;2.20;1.20;;;5.20;99.90;;;;;;5019442;28;20204;-49
2021/04/16 00:22:02;;;;;;;2.77;1.10;;;5.20;99.90;;;;;;5011677;28;20648;-49
2021/04/16 00:24:28;;;;;;;1.27;1.00;;;5.20;99.90;;;;;;5019447;28;20207;-53
2021/04/16 00:26:54;;;;;;;2.27;1.30;;;5.20;99.90;;;;;;5019231;28;20200;-53
2021/04/16 00:29:21;;;;;;;1.60;1.40;;;5.20;99.90;;;;;;5020680;28;20590;-55
2021/04/16 00:31:50;;;;;;;1.60;1.27;;;5.20;99.90;;;;;;5021738;28;20192;-51
2021/04/16 00:34:17;;;;;;;1.20;1.10;;;5.20;99.90;;;;;;5021908;28;20235;-56
2021/04/16 00:36:44;;;;;;;1.07;0.97;;;5.20;99.90;;;;;;5008918;28;20207;-49
2021/04/16 00:39:10;;;;;;;3.03;1.10;;;5.20;99.90;;;;;;5022661;28;20257;-55
2021/04/16 00:41:36;;;;;;;3.30;1.03;;;5.20;99.90;;;;;;5015179;28;20204;-50
2021/04/16 00:44:03;;;;;;;2.03;1.30;;;5.20;99.90;;;;;;5023110;28;20614;-50
2021/04/16 00:46:40;;;;;;;1.10;1.03;;;5.20;99.90;;;;;;5019091;28;20230;-52
2021/04/16 00:49:08;;;;;;;2.10;1.30;;;5.20;99.90;;;;;;5023085;28;20200;-50
2021/04/16 00:51:39;;;;;;;2.80;1.30;;;5.20;99.90;;;;;;5019031;28;20196;-49
2021/04/16 00:54:12;;;;;;;2.00;1.50;;;5.20;99.90;;;;;;5010882;28;20743;-50
2021/04/16 00:56:38;;;;;;;1.30;1.20;;;5.20;99.90;;;;;;5014951;28;21030;-49
2021/04/16 00:59:05;;;;;;;3.10;0.97;;;5.10;99.90;;;;;;5026481;28;20222;-47
2021/04/16 01:01:32;;;;;;;2.07;1.20;;;5.10;99.90;;;;;;5018558;28;20960;-48
2021/04/16 01:03:58;;;;;;;3.57;1.17;;;5.10;99.90;;;;;;5023048;28;20199;-49
2021/04/16 01:06:24;;;;;;;1.50;1.40;;;5.10;99.90;;;;;;5019730;28;20208;-54
2021/04/16 01:08:52;;;;;;;2.93;1.20;;;5.10;99.90;;;;;;5012061;28;20208;-53
2021/04/16 01:11:19;;;;;;;2.60;1.10;;;5.10;99.90;;;;;;5013947;28;20243;-50
2021/04/16 01:13:46;;;;;;;2.80;1.30;;;5.10;99.90;;;;;;5015498;28;20207;-48
2021/04/16 01:16:18;;;;;;;2.60;1.30;;;5.10;99.90;;;;;;5022242;28;20202;-55
2021/04/16 01:18:49;;;;;;;2.40;1.20;;;5.10;99.90;;;;;;5020560;28;20199;-51
2021/04/16 01:21:19;;;;;;;4.20;1.47;;;5.30;99.90;;;;;;5021053;28;20228;-53
2021/04/16 01:23:52;;;;;;;2.90;1.63;;;5.50;99.90;;;;;;5011417;28;20211;-50
2021/04/16 01:26:22;;;;;;;1.63;1.53;;;5.30;99.90;;;;;;5024738;28;20215;-54
2021/04/16 01:28:49;;;;;;;2.60;1.20;;;5.00;99.90;;;;;;5020854;28;22975;-52
2021/04/16 01:31:17;;;;;;;2.10;1.27;;;5.00;99.90;;;;;;5025353;28;20226;-53
2021/04/16 01:33:45;;;;;;;1.60;1.30;;;4.90;99.90;;;;;;5024632;28;20192;-47
2021/04/16 01:36:13;;;;;;;3.30;1.30;;;4.90;99.90;;;;;;5026003;28;20207;-54
2021/04/16 01:38:41;;;;;;;2.77;1.20;;;4.90;99.90;;;;;;5011327;28;20203;-49
2021/04/16 01:41:08;;;;;;;2.30;1.20;;;4.90;99.90;;;;;;5026266;28;20747;-52
2021/04/16 01:43:38;;;;;;;1.80;1.13;;;4.80;99.90;;;;;;5023002;28;20196;-48
2021/04/16 01:46:06;;;;;;;2.33;1.20;;;4.80;99.90;;;;;;5022106;28;20207;-51
2021/04/16 01:48:38;;;;;;;2.77;1.30;;;4.80;99.90;;;;;;5020950;28;20808;-52
2021/04/16 01:51:06;;;;;;;2.87;1.07;;;4.80;99.90;;;;;;5026231;28;20223;-52
2021/04/16 01:53:32;;;;;;;2.70;1.13;;;4.80;99.90;;;;;;5022428;28;20199;-54
2021/04/16 01:55:59;;;;;;;1.53;1.00;;;4.80;99.90;;;;;;5014021;28;20623;-52
2021/04/16 01:58:25;;;;;;;2.50;1.17;;;4.80;99.90;;;;;;5024983;28;20234;-54
2021/04/16 02:00:52;;;;;;;1.87;1.10;;;4.80;99.90;;;;;;5020827;28;20224;-51
2021/04/16 02:03:19;;;;;;;1.37;1.20;;;4.80;99.90;;;;;;5024044;28;20204;-55
2021/04/16 02:05:45;;;;;;;1.63;1.20;;;4.70;99.90;;;;;;5024382;28;20196;-49
2021/04/16 02:08:11;;;;;;;4.40;1.60;;;4.70;99.90;;;;;;5025843;28;20204;-53
2021/04/16 02:10:37;;;;;;;0.90;0.90;;;4.70;99.90;;;;;;5009870;28;20586;-53
2021/04/16 02:13:05;;;;;;;3.40;1.43;;;4.70;99.90;;;;;;5024539;28;20200;-50
2021/04/16 02:15:31;;;;;;;1.70;1.30;;;4.70;99.90;;;;;;5017232;28;20888;-50
2021/04/16 02:17:58;;;;;;;1.40;1.30;;;4.70;99.90;;;;;;5026002;28;20200;-51
2021/04/16 02:20:26;;;;;;;2.57;1.20;;;4.60;99.90;;;;;;5022348;28;20230;-57
2021/04/16 02:22:52;;;;;;;1.63;1.20;;;4.60;99.90;;;;;;5025536;28;20650;-51
2021/04/16 02:25:19;;;;;;;1.17;0.90;;;4.60;99.90;;;;;;5017292;28;20363;-52
2021/04/16 02:27:45;;;;;;;2.27;1.43;;;4.50;99.90;;;;;;5017826;28;20310;-50
2021/04/16 02:30:15;;;;;;;1.50;0.80;;;4.50;99.90;;;;;;5023303;28;20227;-52
2021/04/16 02:32:41;;;;;;;2.83;1.47;;;4.50;99.90;;;;;;5018577;28;20234;-50
2021/04/16 02:35:10;;;;;;;2.90;2.10;;;4.40;99.90;;;;;;5024816;28;20758;-50
2021/04/16 02:37:37;;;;;;;2.93;1.13;;;4.40;99.90;;;;;;5021922;28;20206;-49
2021/04/16 02:40:04;;;;;;;2.70;1.67;;;4.40;99.90;;;;;;5025163;28;20273;-49
2021/04/16 02:42:30;;;;;;;1.30;1.20;;;4.40;99.90;;;;;;5003854;28;20204;-49
2021/04/16 02:44:56;;;;;;;3.47;1.10;;;4.40;99.90;;;;;;5025235;28;20206;-48
2021/04/16 02:47:22;;;;;;;2.30;1.10;;;4.30;99.90;;;;;;5020325;28;20751;-53
2021/04/16 02:49:48;;;;;;;1.33;1.20;;;4.30;99.90;;;;;;5021952;28;20219;-49
2021/04/16 02:52:16;;;;;;;1.83;1.30;;;4.30;99.90;;;;;;5024097;28;20207;-54
2021/04/16 02:54:42;;;;;;;2.63;1.20;;;4.30;99.90;;;;;;5022976;28;20900;-53
2021/04/16 02:57:09;;;;;;;1.63;1.27;;;4.30;99.90;;;;;;5014679;28;20258;-52
2021/04/16 02:59:35;;;;;;;1.33;1.23;;;4.30;99.90;;;;;;5020409;28;20368;-54
2021/04/16 03:02:01;;;;;;;2.03;1.20;;;4.20;99.90;;;;;;5024963;28;20685;-53
2021/04/16 03:04:27;;;;;;;1.00;0.90;;;4.20;99.90;;;;;;5016444;28;20212;-52
2021/04/16 03:06:53;;;;;;;6.90;2.20;;;4.20;99.90;;;;;;5024927;28;20204;-54
2021/04/16 03:09:20;;;;;;;1.30;1.20;;;4.20;99.90;;;;;;5022407;28;20766;-53
2021/04/16 03:11:47;;;;;;;2.50;1.40;;;4.20;99.90;;;;;;5023523;28;20196;-52
2021/04/16 03:14:13;;;;;;;2.63;1.43;;;4.20;99.90;;;;;;5015770;28;20204;-54
2021/04/16 03:16:39;;;;;;;3.00;1.60;;;4.20;99.90;;;;;;5015559;28;20204;-54
2021/04/16 03:19:06;;;;;;;3.23;1.40;;;4.20;99.90;;;;;;5019340;28;20254;-51
2021/04/16 03:21:33;;;;;;;2.20;1.53;;;4.20;99.90;;;;;;5019522;28;20219;-50
2021/04/16 03:23:59;;;;;;;1.87;1.67;;;4.20;99.90;;;;;;5024083;28;20200;-49
2021/04/16 03:26:26;;;;;;;1.50;1.37;;;4.10;99.90;;;;;;5021043;28;20788;-54
2021/04/16 03:28:53;;;;;;;2.73;1.40;;;4.10;99.90;;;;;;5011800;28;20219;-51
2021/04/16 03:31:20;;;;;;;2.20;1.53;;;4.10;99.90;;;;;;5021976;28;20231;-51
2021/04/16 03:33:46;;;;;;;2.97;1.63;;;4.10;99.90;;;;;;5018438;28;20207;-51
2021/04/16 03:36:12;;;;;;;2.30;1.20;;;4.10;99.90;;;;;;5023790;28;20210;-54
2021/04/16 03:38:38;;;;;;;2.83;1.33;;;4.10;99.90;;;;;;5021132;28;20188;-52
2021/04/16 03:41:04;;;;;;;1.27;1.03;;;4.10;99.90;;;;;;5024075;28;20598;-52
2021/04/16 03:43:31;;;;;;;5.00;1.70;;;4.10;99.90;;;;;;5008297;28;20799;-50
2021/04/16 03:45:57;;;;;;;1.50;1.40;;;4.10;99.90;;;;;;5028060;28;20212;-49
2021/04/16 03:48:23;;;;;;;2.63;1.30;;;4.10;99.90;;;;;;5019813;28;20208;-55
2021/04/16 03:50:50;;;;;;;3.13;1.67;;;4.10;99.90;;;;;;5018732;28;20704;-50
2021/04/16 03:53:16;;;;;;;1.53;1.40;;;4.10;99.90;;;;;;5022735;28;20630;-53
2021/04/16 03:55:43;;;;;;;3.33;1.50;;;4.00;99.90;;;;;;5021478;28;20192;-49
2021/04/16 03:58:11;;;;;;;2.53;1.33;;;4.00;99.90;;;;;;5018824;28;20285;-53
2021/04/16 04:00:40;;;;;;;1.50;1.40;;;4.00;99.90;;;;;;5006667;28;20224;-48
2021/04/16 04:03:08;;;;;;;2.80;1.53;;;4.00;99.90;;;;;;5023791;28;20685;-48
2021/04/16 04:05:35;;;;;;;2.77;1.57;;;3.90;99.90;;;;;;5015353;28;20205;-50
2021/04/16 04:08:01;;;;;;;2.97;1.53;;;3.80;99.90;;;;;;5023931;28;20738;-48
2021/04/16 04:10:34;;;;;;;4.00;1.90;;;3.80;99.90;;;;;;5019529;28;20307;-54
2021/04/16 04:13:00;;;;;;;2.10;1.30;;;3.70;99.90;;;;;;5023611;28;20215;-52
2021/04/16 04:15:26;;;;;;;4.63;1.83;;;3.70;99.90;;;;;;5007576;28;20676;-55
2021/04/16 04:17:54;;;;;;;3.70;1.50;;;3.70;99.90;;;;;;5023141;28;20204;-49
2021/04/16 04:20:23;;;;;;;1.43;1.17;;;3.60;99.90;;;;;;5020805;28;20228;-54
2021/04/16 04:22:49;;;;;;;2.33;1.47;;;3.50;99.90;;;;;;5017325;28;20630;-48
2021/04/16 04:25:19;;;;;;;2.73;1.60;;;3.60;99.90;;;;;;5022295;28;20214;-51
2021/04/16 04:27:45;;;;;;;2.87;1.67;;;3.50;99.90;;;;;;5021047;28;20526;-47
2021/04/16 04:30:13;;;;;;;2.30;1.47;;;3.50;99.90;;;;;;5005611;28;20589;-55
2021/04/16 04:32:39;;;;;;;1.63;1.37;;;3.50;99.90;;;;;;5020758;28;20198;-50
2021/04/16 04:35:08;;;;;;;3.00;1.43;;;3.50;99.90;;;;;;5022216;28;20215;-53
2021/04/16 04:37:34;;;;;;;7.60;1.90;;;3.40;99.90;;;;;;5014295;28;20222;-55
2021/04/16 04:40:00;;;;;;;2.47;2.13;;;3.40;99.90;;;;;;5022902;28;20212;-50
2021/04/16 04:42:26;;;;;;;3.43;1.83;;;3.30;99.90;;;;;;5019340;28;20196;-53
2021/04/16 04:44:53;;;;;;;2.23;1.63;;;3.30;99.90;;;;;;5023152;28;20289;-50
2021/04/16 04:47:19;;;;;;;4.10;1.83;;;3.30;99.90;;;;;;5009398;28;20211;-54
2021/04/16 04:49:45;;;;;;;3.67;2.20;;;3.30;99.90;;;;;;5020870;28;20219;-49
2021/04/16 04:52:15;;;;;;;4.17;2.00;;;3.20;99.90;;;;;;5021360;28;20680;-54
2021/04/16 04:54:45;;;;;;;1.80;1.40;;;3.30;99.90;;;;;;5015949;28;20203;-47
2021/04/16 04:57:11;;;;;;;2.83;1.80;;;3.30;99.90;;;;;;5022406;28;20207;-53
2021/04/16 04:59:37;;;;;;;3.13;1.90;;;3.30;99.90;;;;;;5022208;28;20973;-49
2021/04/16 05:02:03;;;;;;;3.50;2.13;;;3.30;99.90;;;;;;5010938;28;20261;-52
2021/04/16 05:04:29;;;;;;;2.10;1.80;;;3.30;99.90;;;;;;5018849;28;20781;-52
2021/04/16 05:06:55;;;;;;;4.63;1.67;;;3.30;99.90;;;;;;5022956;28;20211;-53
2021/04/16 05:09:22;;;;;;;2.47;1.93;;;3.30;99.90;;;;;;5017144;28;20219;-52
2021/04/16 05:11:48;;;;;;;2.13;1.87;;;3.30;99.90;;;;;;5018910;28;20195;-51
2021/04/16 05:14:15;;;;;;;2.93;2.20;;;3.30;99.90;;;;;;5015326;28;20195;-53
2021/04/16 05:16:41;;;;;;;1.97;1.87;;;3.30;99.90;;;;;;5004331;28;20204;-49
2021/04/16 05:19:07;;;;;;;3.83;1.80;;;3.30;99.90;;;;;;5017889;28;20200;-53
2021/04/16 05:21:36;;;;;;;2.10;1.87;;;3.30;99.90;;;;;;5017184;28;20222;-50
2021/04/16 05:24:03;;;;;;;2.50;2.00;;;3.30;99.90;;;;;;5020509;28;20227;-51
2021/04/16 05:26:30;;;;;;;3.50;2.03;;;3.30;99.90;;;;;;5012326;28;20211;-50
2021/04/16 05:28:56;;;;;;;2.70;2.00;;;3.40;99.90;;;;;;5021265;28;20210;-51
2021/04/16 05:31:22;;;;;;;2.87;2.30;;;3.40;99.90;;;;;;5008754;28;20215;-54
2021/04/16 05:33:48;;;;;;;2.20;2.00;;;3.40;99.90;;;;;;5007452;28;20206;-50
2021/04/16 05:36:15;;;;;;;3.27;2.17;;;3.40;99.90;;;;;;5014947;28;20199;-50
2021/04/16 05:38:41;;;;;;;2.90;2.27;;;3.40;99.90;;;;;;5018187;28;20224;-48
2021/04/16 05:41:07;;;;;;;2.03;1.87;;;3.40;99.90;;;;;;5011275;28;20244;-54
2021/04/16 05:43:34;;;;;;;3.47;1.90;;;3.50;99.90;;;;;;5018953;28;20202;-51
2021/04/16 05:46:00;;;;;;;3.57;2.30;;;3.50;99.90;;;;;;5018815;28;20194;-50
2021/04/16 05:48:26;;;;;;;4.73;2.30;;;3.50;99.90;;;;;;4999841;28;20258;-50
2021/04/16 05:50:52;;;;;;;2.40;2.20;;;3.60;99.90;;;;;;5020990;28;20222;-51
2021/04/16 05:53:18;;;;;;;5.57;2.33;;;3.60;99.90;;;;;;5018050;28;20207;-57
2021/04/16 05:55:45;;;;;;;4.97;2.23;;;3.70;99.90;;;;;;5012823;28;20208;-52
2021/04/16 05:58:11;;;;;;;4.50;2.23;;;3.70;99.90;;;;;;5012464;28;20322;-53
2021/04/16 06:00:38;;;;;;;3.87;2.30;;;3.80;99.90;;;;;;5018996;28;20203;-50
2021/04/16 06:03:04;;;;;;;3.70;2.70;;;3.80;99.90;;;;;;5019779;28;20867;-51
2021/04/16 06:05:31;;;;;;;4.73;2.80;;;3.90;99.90;;;;;;5007781;28;20290;-52
2021/04/16 06:07:57;;;;;;;6.90;2.47;;;3.90;99.90;;;;;;5018436;28;20200;-50
2021/04/16 06:10:24;;;;;;;5.57;2.13;;;4.00;99.90;;;;;;5009735;28;20208;-54
2021/04/16 06:12:51;;;;;;;5.93;2.70;;;4.00;99.90;;;;;;5017912;28;20200;-51
2021/04/16 06:15:20;;;;;;;4.30;3.07;;;4.10;99.90;;;;;;5022216;28;20200;-55
2021/04/16 06:17:47;;;;;;;5.73;3.10;;;4.10;99.90;;;;;;5022005;28;20258;-47
2021/04/16 06:20:15;;;;;;;5.70;3.13;;;4.20;99.90;;;;;;5007644;28;20227;-52
2021/04/16 06:22:41;;;;;;;5.83;2.63;;;4.20;99.90;;;;;;5024516;28;20199;-49
2021/04/16 06:25:09;;;;;;;4.83;2.77;;;4.20;99.90;;;;;;5025054;28;20546;-53
2021/04/16 06:27:36;;;;;;;4.87;3.07;;;4.30;99.90;;;;;;5013064;28;20379;-53
2021/04/16 06:30:04;;;;;;;5.50;3.50;;;4.40;99.90;;;;;;5023548;28;20218;-51
2021/04/16 06:32:30;;;;;;;5.67;3.53;;;4.40;99.90;;;;;;5022464;28;20204;-52
2021/04/16 06:34:57;;;;;;;7.70;3.23;;;4.50;99.90;;;;;;5025889;28;20200;-50
2021/04/16 06:37:23;;;;;;;6.03;2.93;;;4.60;99.90;;;;;;5008456;28;20294;-50
2021/04/16 06:39:49;;;;;;;8.07;3.40;;;4.70;99.90;;;;;;5016957;28;20223;-50
2021/04/16 06:42:27;;;;;;;5.40;2.93;;;4.80;99.90;;;;;;5016431;28;20200;-54
2021/04/16 06:44:55;;;;;;;7.23;3.37;;;4.90;99.90;;;;;;5018102;28;20557;-52
2021/04/16 06:47:26;;;;;;;3.90;3.00;;;5.00;99.90;;;;;;5017704;28;20200;-54
2021/04/16 06:49:55;;;;;;;3.67;2.97;;;5.10;99.90;;;;;;5022774;28;20216;-52
2021/04/16 06:52:27;;;;;;;9.10;3.53;;;5.10;99.90;;;;;;5010470;28;20261;-53
2021/04/16 06:54:57;;;;;;;7.50;3.40;;;5.10;99.90;;;;;;5020527;28;20204;-53
2021/04/16 06:57:38;;;;;;;7.07;3.57;;;5.30;99.90;;;;;;5015867;28;20203;-51
2021/04/16 07:00:13;;;;;;;8.10;3.10;;;5.40;99.90;;;;;;5014126;28;20256;-56
2021/04/16 07:02:47;;;;;;;5.43;2.90;;;5.50;99.90;;;;;;5020238;28;20187;-55
2021/04/16 07:05:23;;;;;;;4.20;3.13;;;5.60;99.90;;;;;;5021492;28;20196;-53
2021/04/16 07:07:51;;;;;;;5.27;3.10;;;5.60;99.90;;;;;;5012439;28;20210;-53
2021/04/16 07:10:19;;;;;;;7.83;3.20;;;5.80;99.90;;;;;;5023665;28;20242;-53
2021/04/16 07:12:47;;;;;;;3.27;2.20;;;5.90;99.90;;;;;;5017934;28;20273;-51
2021/04/16 07:15:17;;;;;;;6.40;2.77;;;6.00;99.90;;;;;;5014961;28;20204;-52
2021/04/16 07:17:45;;;;;;;4.10;2.67;;;6.10;99.90;;;;;;5019138;28;20197;-52
2021/04/16 07:20:15;;;;;;;3.00;2.70;;;6.20;99.90;;;;;;5019526;28;20235;-53
2021/04/16 07:22:44;;;;;;;3.37;2.27;;;6.40;99.90;;;;;;5009775;28;20207;-48
2021/04/16 07:25:35;;;;;;;4.50;2.57;;;6.40;99.90;;;;;;5020583;28;20664;-54
2021/04/16 07:28:03;;;;;;;3.60;2.43;;;6.40;99.90;;;;;;5019890;28;20219;-50
2021/04/16 07:30:33;;;;;;;4.67;2.60;;;6.40;99.90;;;;;;5010853;28;20254;-51
2021/04/16 07:33:00;;;;;;;4.80;2.40;;;6.50;99.90;;;;;;5022321;28;20308;-54
2021/04/16 07:35:30;;;;;;;2.63;2.43;;;6.60;99.90;;;;;;5006998;28;20197;-48
2021/04/16 07:38:06;;;;;;;3.53;2.20;;;6.70;99.90;;;;;;5004810;28;20204;-51
2021/04/16 07:40:36;;;;;;;5.30;2.20;;;6.80;99.90;;;;;;5016411;28;20215;-51
2021/04/16 07:43:03;;;;;;;3.50;1.90;;;7.00;99.90;;;;;;5020204;28;20914;-50
2021/04/16 07:45:45;;;;;;;3.17;2.00;;;7.10;99.90;;;;;;5012544;28;20200;-48
2021/04/16 07:48:25;;;;;;;3.00;2.10;;;7.20;99.90;;;;;;5015842;28;20291;-51
2021/04/16 07:50:53;;;;;;;3.67;2.27;;;7.30;99.90;;;;;;5023977;28;20212;-47
2021/04/16 07:53:28;;;;;;;2.93;2.00;;;7.40;99.90;;;;;;5011093;28;20200;-54
2021/04/16 07:56:11;;;;;;;2.00;1.50;;;7.60;99.90;;;;;;5020159;28;20238;-49
2021/04/16 07:58:38;;;;;;;3.97;1.83;;;7.70;99.90;;;;;;5021821;28;20258;-53
2021/04/16 08:01:20;;;;;;;3.33;1.80;;;7.90;99.90;;;;;;5019064;28;20224;-53
2021/04/16 08:03:50;;;;;;;3.83;1.80;;;8.00;99.90;;;;;;5023367;28;20214;-47
2021/04/16 08:06:29;;;;;;;2.57;1.57;;;8.10;99.90;;;;;;5015129;28;20200;-55
2021/04/16 08:08:56;;;;;;;2.50;1.83;;;8.20;99.90;;;;;;5021239;28;20200;-49
2021/04/16 08:11:26;;;;;;;3.10;1.43;;;8.30;99.90;;;;;;5006997;28;20591;-52
2021/04/16 08:14:05;;;;;;;2.87;1.70;;;8.40;99.90;;;;;;5012515;28;20307;-49
2021/04/16 08:16:34;;;;;;;1.57;1.47;;;8.40;99.90;;;;;;5016824;28;20198;-50
2021/04/16 08:19:23;;;;;;;1.07;1.00;;;8.40;98.90;;;;;;5013327;28;20249;-53
2021/04/16 08:21:52;;;;;;;2.03;1.00;;;8.30;96.50;;;;;;5024157;28;20227;-48
2021/04/16 08:24:26;;;;;;;3.50;1.60;;;8.50;99.30;;;;;;5013828;28;20999;-52
2021/04/16 08:27:04;;;;;;;1.50;1.10;;;8.60;96.80;;;;;;5010624;28;20212;-50
2021/04/16 08:29:35;;;;;;;1.67;1.13;;;8.80;94.00;;;;;;5021394;28;20215;-50
2021/04/16 08:32:07;;;;;;;1.10;1.00;;;8.90;94.90;;;;;;5016898;28;20196;-56
2021/04/16 08:34:39;;;;;;;1.50;1.03;;;9.00;94.10;;;;;;5015668;28;20199;-47
2021/04/16 08:37:05;;;;;;;2.23;0.70;;;9.00;93.70;;;;;;5021603;28;20720;-56
2021/04/16 08:39:34;;;;;;;1.33;0.93;;;9.10;92.30;;;;;;5013922;28;20219;-49
2021/04/16 08:42:07;;;;;;;1.23;0.97;;;9.00;90.90;;;;;;5008769;28;20273;-53
2021/04/16 08:44:38;;;;;;;1.13;1.00;;;9.10;91.20;;;;;;5014611;28;20192;-52
2021/04/16 08:47:07;;;;;;;2.77;1.20;;;9.20;91.40;;;;;;5019301;28;20199;-57
2021/04/16 08:49:35;;;;;;;1.60;1.00;;;9.20;91.20;;;;;;5013504;28;20218;-50
2021/04/16 08:52:05;;;;;;;1.23;1.00;;;9.30;90.10;;;;;;5019378;28;20194;-55
2021/04/16 08:54:34;;;;;;;2.20;0.97;;;9.10;89.30;;;;;;5017562;28;20203;-56
2021/04/16 08:57:08;;;;;;;1.37;1.00;;;9.10;90.10;;;;;;5004952;28;20203;-51
2021/04/16 08:59:43;;;;;;;1.93;0.90;;;9.10;90.90;;;;;;5017204;28;20220;-54
2021/04/16 09:02:18;;;;;;;3.03;1.17;;;9.20;90.30;;;;;;5018577;28;20226;-56
2021/04/16 09:04:50;;;;;;;3.27;1.00;;;9.30;85.20;;;;;;5013961;28;20672;-54
2021/04/16 09:07:36;;;;;;;0.90;0.70;;;9.30;88.30;;;;;;5012888;28;20204;-51
2021/04/16 09:10:08;;;;;;;1.70;0.77;;;9.30;80.30;;;;;;5020140;28;20222;-53
2021/04/16 09:12:50;;;;;;;1.67;0.90;;;9.30;83.00;;;;;;5008743;28;20208;-55
2021/04/16 09:15:43;;;;;;;1.90;0.97;;;9.30;80.50;;;;;;5015781;28;20214;-51
2021/04/16 09:18:30;;;;;;;0.80;0.80;;;9.40;82.20;;;;;;5019543;28;20295;-54
2021/04/16 09:21:22;;;;;;;0.90;0.53;;;9.50;78.60;;;;;;5011577;28;20212;-54
2021/04/16 09:24:03;;;;;;;1.30;0.90;;;9.40;77.30;;;;;;5022340;28;20575;-55
2021/04/16 09:27:09;;;;;;;0.80;0.80;;;9.40;78.20;;;;;;5020192;28;20282;-52
2021/04/16 09:29:48;;;;;;;2.87;0.80;;;9.40;76.50;;;;;;5013935;28;20212;-48
2021/04/16 09:32:45;;;;;;;1.00;0.90;;;9.40;75.00;;;;;;5012837;28;20631;-51
2021/04/16 09:35:28;;;;;;;0.67;0.67;;;9.40;76.60;;;;;;5011437;28;20204;-54
2021/04/16 09:38:31;;;;;;;1.03;0.70;;;9.60;78.30;;;;;;5012245;28;20395;-57
2021/04/16 09:41:12;;;;;;;2.10;0.70;;;9.70;77.20;;;;;;5016554;28;20304;-53
2021/04/16 09:43:40;;;;;;;1.20;0.90;;;9.80;76.60;;;;;;5004861;28;20216;-56
2021/04/16 09:46:44;;;;;;;0.80;0.80;;;9.90;75.70;;;;;;5025525;28;20669;-51
2021/04/16 09:49:29;;;;;;;0.73;0.67;;;9.90;73.90;;;;;;5019300;28;20203;-50
2021/04/16 09:51:58;;;;;;;0.90;0.70;;;9.80;75.90;;;;;;5017119;28;20806;-51
2021/04/16 09:54:37;;;;;;;0.90;0.70;;;9.90;73.80;;;;;;5019676;28;20666;-53
2021/04/16 09:57:24;;;;;;;0.90;0.80;;;9.80;73.10;;;;;;5020626;28;20327;-55
2021/04/16 09:59:50;;;;;;;0.77;0.77;;;9.80;69.90;;;;;;5014365;28;20230;-56
2021/04/16 10:02:37;;;;;;;4.67;0.97;;;9.80;71.60;;;;;;5021811;28;20768;-53
2021/04/16 10:05:31;;;;;;;1.40;0.90;;;9.90;71.90;;;;;;5019907;28;20652;-52
2021/04/16 10:08:01;;;;;;;1.37;0.67;;;10.00;69.40;;;;;;5017885;28;20219;-55
2021/04/16 10:10:33;;;;;;;1.57;0.80;;;10.00;70.30;;;;;;5023299;28;20219;-56
2021/04/16 10:13:05;;;;;;;1.23;0.70;;;10.10;69.20;;;;;;5020427;28;20270;-56
2021/04/16 10:15:36;;;;;;;1.23;0.90;;;10.00;67.70;;;;;;5013241;28;20220;-55
2021/04/16 10:18:06;;;;;;;1.40;0.87;;;10.10;69.00;;;;;;5019238;28;20207;-54
2021/04/16 10:20:40;;;;;;;0.77;0.73;;;10.20;69.30;;;;;;5017520;28;20208;-54
2021/04/16 10:23:17;;;;;;;0.60;0.60;;;10.30;69.00;;;;;;5018806;28;20200;-54
2021/04/16 12:38:47;;;;;;;1.93;0.97;;;11.80;58.70;;;;;;5019739;28;20195;-54
2021/04/16 12:41:16;;;;;;;2.13;0.90;;;11.70;59.60;;;;;;5017810;28;20270;-55
2021/04/16 12:43:44;;;;;;;1.97;1.00;;;11.70;60.20;;;;;;5014312;28;20278;-55
2021/04/16 12:46:13;;;;;;;1.07;0.93;;;11.80;59.90;;;;;;5023558;28;20215;-50
2021/04/16 12:48:39;;;;;;;4.30;0.90;;;11.90;59.70;;;;;;5005065;28;20202;-52
2021/04/16 12:51:06;;;;;;;1.57;0.80;;;11.90;59.20;;;;;;5022922;28;20266;-54
2021/04/16 12:53:32;;;;;;;2.63;0.93;;;11.80;58.60;;;;;;5016104;28;20208;-50
2021/04/16 12:55:58;;;;;;;1.10;0.57;;;11.80;57.80;;;;;;5017575;28;20196;-52
2021/04/16 12:58:27;;;;;;;1.77;0.60;;;11.80;57.30;;;;;;5016582;28;20231;-52
2021/04/16 13:00:55;;;;;;;2.37;0.80;;;11.70;55.40;;;;;;5019188;28;20227;-55
2021/04/16 13:03:26;;;;;;;3.50;1.13;;;11.60;56.70;;;;;;5019117;28;20211;-52
2021/04/16 13:05:52;;;;;;;2.93;0.83;;;11.70;57.20;;;;;;5014423;28;20203;-54
2021/04/16 13:08:20;;;;;;;1.20;0.63;;;11.70;56.70;;;;;;5021805;28;20208;-54
2021/04/16 13:10:46;;;;;;;2.23;1.00;;;11.90;58.60;;;;;;5018989;28;20219;-53
2021/04/16 13:13:12;;;;;;;2.60;0.90;;;12.20;57.00;;;;;;5016259;28;20219;-52
2021/04/16 13:15:39;;;;;;;1.03;0.80;;;12.40;56.40;;;;;;5017564;28;20246;-50
2021/04/16 13:18:10;;;;;;;1.77;0.90;;;12.70;56.90;;;;;;5019894;28;20557;-52
2021/04/16 13:20:37;;;;;;;0.93;0.70;;;12.90;55.20;;;;;;5006276;28;20238;-52
2021/04/16 13:23:03;;;;;;;3.80;0.77;;;12.80;55.10;;;;;;5026041;28;20200;-55
2021/04/16 13:25:30;;;;;;;0.83;0.60;;;12.80;54.80;;;;;;5022200;28;20699;-54
2021/04/16 13:27:57;;;;;;;1.77;0.70;;;12.80;54.60;;;;;;5020594;28;20211;-54
2021/04/16 13:30:25;;;;;;;1.93;0.70;;;13.00;53.70;;;;;;5014616;28;20225;-57
2021/04/16 13:32:55;;;;;;;3.07;1.23;;;13.20;51.70;;;;;;5019990;28;20192;-54
2021/04/16 13:35:27;;;;;;;0.90;0.60;;;13.30;53.70;;;;;;5016650;28;20650;-53
2021/04/16 13:37:54;;;;;;;1.23;0.80;;;13.40;53.00;;;;;;5017677;28;20827;-49
2021/04/16 13:40:20;;;;;;;1.67;0.63;;;13.30;52.80;;;;;;5023575;28;20224;-52
2021/04/16 13:42:47;;;;;;;2.00;1.00;;;13.00;52.60;;;;;;5022775;28;20211;-48
2021/04/16 13:45:14;;;;;;;2.50;0.80;;;13.20;53.10;;;;;;5024987;28;20226;-52
2021/04/16 13:47:43;;;;;;;2.67;0.70;;;13.30;53.20;;;;;;5023269;28;20207;-54
2021/04/16 13:50:11;;;;;;;2.10;0.70;;;13.30;52.70;;;;;;5026099;28;20228;-52
2021/04/16 13:52:37;;;;;;;3.47;0.97;;;13.20;52.70;;;;;;5020132;28;20233;-52
2021/04/16 13:55:04;;;;;;;1.23;0.80;;;12.90;52.30;;;;;;5031590;28;20650;-50
2021/04/16 13:57:30;;;;;;;2.97;1.00;;;12.70;53.50;;;;;;5020419;28;20204;-51
2021/04/16 13:59:57;;;;;;;2.40;0.80;;;12.70;54.40;;;;;;5023126;28;20227;-47
2021/04/16 14:02:27;;;;;;;0.70;0.57;;;12.70;53.30;;;;;;5023090;28;20219;-51
2021/04/16 14:04:53;;;;;;;2.30;0.70;;;12.60;52.70;;;;;;5024009;28;20219;-48
2021/04/16 14:07:23;;;;;;;2.20;0.60;;;12.70;52.90;;;;;;5021504;28;20200;-50
2021/04/16 14:09:49;;;;;;;1.40;0.73;;;13.00;51.90;;;;;;5023851;28;20228;-50
2021/04/16 14:12:16;;;;;;;1.50;0.50;;;13.00;51.30;;;;;;5024742;28;20561;-51
2021/04/16 14:14:44;;;;;;;1.37;0.77;;;13.20;51.30;;;;;;5021600;28;20196;-53
2021/04/16 14:17:16;;;;;;;0.90;0.70;;;13.30;50.70;;;;;;5025319;28;20295;-53
2021/04/16 14:19:47;;;;;;;3.07;1.00;;;13.60;50.40;;;;;;5022809;28;20254;-53
2021/04/16 14:22:15;;;;;;;1.37;0.77;;;14.00;50.30;;;;;;5022409;28;20261;-49
2021/04/16 14:24:41;;;;;;;2.23;0.77;;;14.50;48.70;;;;;;5019764;28;20298;-56
2021/04/16 14:27:09;;;;;;;1.87;0.90;;;14.20;48.30;;;;;;5023124;28;20211;-53
2021/04/16 14:29:35;;;;;;;2.77;0.87;;;14.20;48.80;;;;;;5010624;28;20227;-53
2021/04/16 14:32:01;;;;;;;1.60;0.90;;;14.10;48.10;;;;;;5012845;28;20200;-49
2021/04/16 14:34:31;;;;;;;0.70;0.53;;;14.10;48.60;;;;;;5013768;28;20204;-49
2021/04/16 14:36:57;;;;;;;1.63;0.83;;;14.00;47.90;;;;;;5017516;28;20680;-49
2021/04/16 14:39:24;;;;;;;3.03;0.77;;;13.90;48.20;;;;;;5015552;28;20237;-53
2021/04/16 14:41:51;;;;;;;0.80;0.80;;;14.30;48.70;;;;;;5023979;28;20208;-56
2021/04/16 14:44:18;;;;;;;2.43;0.80;;;14.50;47.80;;;;;;5014051;28;20195;-56
2021/04/16 14:46:49;;;;;;;1.53;0.50;;;14.50;48.30;;;;;;5017646;28;20193;-52
2021/04/16 14:49:17;;;;;;;1.30;0.50;;;14.90;47.60;;;;;;5017314;28;20239;-56
2021/04/16 14:51:44;;;;;;;1.40;0.60;;;14.80;47.50;;;;;;5017578;28;20196;-56
2021/04/16 14:54:25;;;;;;;0.90;0.53;;;14.80;48.30;;;;;;5017207;28;20261;-55
2021/04/16 14:56:52;;;;;;;1.10;0.57;;;14.80;48.70;;;;;;5026020;28;20207;-51
2021/04/16 14:59:26;;;;;;;2.73;0.60;;;15.00;48.80;;;;;;5013441;28;20204;-55
2021/04/16 15:01:54;;;;;;;2.03;0.87;;;15.00;57.10;;;;;;5018998;28;20219;-50
2021/04/16 15:04:21;;;;;;;2.53;0.70;;;14.80;57.90;;;;;;5015480;28;20235;-50
2021/04/16 15:06:52;;;;;;;1.77;0.80;;;14.70;58.50;;;;;;5020884;28;20204;-51
2021/04/16 15:09:18;;;;;;;1.47;0.57;;;14.30;58.50;;;;;;5017399;28;20211;-56
2021/04/16 15:11:47;;;;;;;0.97;0.50;;;14.30;58.90;;;;;;5012991;28;20352;-51
2021/04/16 15:14:16;;;;;;;0.90;0.50;;;14.30;59.40;;;;;;5023803;28;20266;-54
2021/04/16 15:16:44;;;;;;;0.73;0.50;;;14.60;59.20;;;;;;5017535;28;20200;-50
2021/04/16 15:19:26;;;;;;;1.50;0.60;;;14.30;58.90;;;;;;5018658;28;20192;-54